Currie, Australia
Current Conditions -  °F | °C
As of 5:00 PM on Thursday 29 Jan 2015 (Local Time) from YMAV Reporting Station
Scattered Clouds Scattered Clouds  
Wind Chill: 68°   Ceiling: Unl
Heat Index: 68°   Visibility: 6mi
Dew Point: 50°   Wind: 20mph
Humidity: 52%   Direction: 160°SSE
Pressure: 30.06"   Gusts: NA
Location:  39.93°S, 143.85°E
Report Text: YMAV 290600Z AUTO 16017KT 9999 // SCT035 20/10 Q1018
Loading
Personal Weather Stations






























Interactive Weather Map New forecast layout! Learn more

10-Day Weather Forecast

Advertisements
Track Severe Weather on mobile